Time;durP1;ratioP1;P1;durP2;ratioP2;P2;SDS_P1;SDS_P2;PMS_P1;PMS_P2;Temp;Humidity;BMP_temperature;BMP_pressure;BME280_temperature;BME280_humidity;BME280_pressure;Samples;Min_cycle;Max_cycle;Signal;HPM_P1;HPM_P2
2022/08/14 00:00:13;;;;;;;2.28;1.17;;;24.20;63.40;;;;;;5037794;28;45327;-69
2022/08/14 00:02:41;;;;;;;2.60;1.20;;;24.20;63.30;;;;;;5035293;28;47169;-69
2022/08/14 00:05:10;;;;;;;5.80;1.20;;;24.20;63.30;;;;;;5072768;27;45528;-68
2022/08/14 00:07:40;;;;;;;3.20;1.10;;;24.20;63.30;;;;;;5075705;27;45453;-69
2022/08/14 00:10:10;;;;;;;1.65;1.20;;;24.20;63.30;;;;;;5031186;27;45317;-69
2022/08/14 00:12:40;;;;;;;1.33;1.23;;;24.20;63.30;;;;;;5068110;27;46103;-69
2022/08/14 00:15:11;;;;;;;1.95;1.33;;;24.20;63.20;;;;;;5075785;27;45328;-68
2022/08/14 00:17:38;;;;;;;2.33;1.38;;;24.20;63.00;;;;;;5054402;27;45416;-69
2022/08/14 00:20:07;;;;;;;1.95;1.23;;;24.20;62.90;;;;;;5041820;27;45244;-69
2022/08/14 00:22:34;;;;;;;1.98;1.20;;;24.20;62.90;;;;;;5074988;27;47363;-70
2022/08/14 00:25:03;;;;;;;2.38;1.40;;;24.20;62.80;;;;;;5033627;28;45254;-69
2022/08/14 00:27:30;;;;;;;1.33;1.20;;;24.20;62.90;;;;;;5049854;27;45435;-69
2022/08/14 00:29:57;;;;;;;2.17;1.30;;;24.20;62.90;;;;;;5050799;27;45518;-69
2022/08/14 00:32:24;;;;;;;1.73;1.38;;;24.20;62.80;;;;;;5069784;27;45408;-69
2022/08/14 00:34:51;;;;;;;1.65;1.40;;;24.20;62.90;;;;;;5030251;27;45395;-69
2022/08/14 00:37:20;;;;;;;1.58;1.20;;;24.20;62.90;;;;;;5074141;27;45312;-69
2022/08/14 00:39:47;;;;;;;2.15;1.60;;;24.20;62.90;;;;;;5097493;27;45292;-69
2022/08/14 00:42:19;;;;;;;1.70;1.40;;;24.20;63.90;;;;;;5052912;27;45465;-68
2022/08/14 00:44:47;;;;;;;1.45;1.23;;;24.20;62.90;;;;;;5055814;27;45366;-69
2022/08/14 00:47:15;;;;;;;1.88;1.60;;;24.20;62.90;;;;;;5072082;27;45408;-69
2022/08/14 00:49:44;;;;;;;1.60;1.30;;;24.20;63.00;;;;;;5052131;27;45536;-69
2022/08/14 00:52:12;;;;;;;2.50;1.42;;;24.20;63.00;;;;;;5039330;27;46957;-68
2022/08/14 00:54:39;;;;;;;1.98;1.60;;;24.20;63.10;;;;;;5038439;27;46146;-69
2022/08/14 00:57:07;;;;;;;3.22;1.50;;;24.20;63.10;;;;;;5034224;27;45514;-69
2022/08/14 00:59:36;;;;;;;1.83;1.33;;;24.20;63.10;;;;;;5066434;27;45528;-69
2022/08/14 01:02:04;;;;;;;3.20;1.27;;;24.20;63.10;;;;;;5073012;27;45376;-68
2022/08/14 01:04:35;;;;;;;2.00;1.77;;;24.20;63.10;;;;;;5045782;27;45356;-69
2022/08/14 01:07:02;;;;;;;2.42;1.60;;;24.20;63.10;;;;;;5047337;27;45302;-68
2022/08/14 01:09:30;;;;;;;1.60;1.40;;;24.20;63.10;;;;;;5034324;27;45569;-69
2022/08/14 01:11:58;;;;;;;1.67;1.50;;;24.20;63.00;;;;;;5068088;27;46551;-68
2022/08/14 01:14:25;;;;;;;2.33;1.55;;;24.20;63.10;;;;;;5029613;27;45234;-70
2022/08/14 01:16:53;;;;;;;2.00;1.40;;;24.20;63.00;;;;;;5074152;27;45317;-69
2022/08/14 01:22:07;;;;;;;1.98;1.30;;;24.20;62.90;;;;;;5047497;27;45804;-68
2022/08/14 01:24:35;;;;;;;2.53;1.60;;;24.20;63.00;;;;;;5070896;27;45278;-69
2022/08/14 01:27:04;;;;;;;1.58;1.45;;;24.20;62.90;;;;;;5074781;27;45439;-69
2022/08/14 01:29:36;;;;;;;2.72;1.30;;;24.20;63.00;;;;;;5029923;28;45422;-69
2022/08/14 01:32:04;;;;;;;1.38;1.27;;;24.20;62.90;;;;;;5075347;27;48690;-69
2022/08/14 01:34:31;;;;;;;1.60;1.20;;;24.20;62.90;;;;;;5048880;27;45393;-69
2022/08/14 01:37:00;;;;;;;1.60;1.40;;;24.20;63.00;;;;;;5039722;27;45372;-70
2022/08/14 01:39:28;;;;;;;1.90;1.30;;;24.20;63.00;;;;;;5027186;28;45305;-69
2022/08/14 01:41:59;;;;;;;1.45;1.35;;;24.20;63.00;;;;;;5031760;28;48325;-70
2022/08/14 01:44:30;;;;;;;1.58;1.25;;;24.20;63.10;;;;;;5046876;27;45464;-69
2022/08/14 01:46:58;;;;;;;1.40;1.20;;;24.20;63.00;;;;;;5049343;27;45365;-69
2022/08/14 01:49:26;;;;;;;1.40;1.30;;;24.20;63.10;;;;;;5069866;27;45584;-69
2022/08/14 01:51:55;;;;;;;1.67;1.58;;;24.20;63.10;;;;;;5029344;28;46483;-68
2022/08/14 01:54:24;;;;;;;1.63;1.50;;;24.20;63.10;;;;;;5071264;27;46486;-69
2022/08/14 01:56:55;;;;;;;1.55;1.45;;;24.20;63.10;;;;;;5028249;28;45284;-69
2022/08/14 01:59:25;;;;;;;1.98;1.60;;;24.20;63.10;;;;;;5070094;27;45369;-69
2022/08/14 02:01:55;;;;;;;1.50;1.40;;;24.20;63.00;;;;;;5030394;28;46531;-69
2022/08/14 02:04:24;;;;;;;1.90;1.70;;;24.20;63.10;;;;;;5074355;27;45309;-69
2022/08/14 02:06:52;;;;;;;1.70;1.48;;;24.20;63.10;;;;;;5074496;27;45359;-69
2022/08/14 02:09:20;;;;;;;1.63;1.42;;;24.10;62.90;;;;;;5024500;28;45383;-69
2022/08/14 02:11:48;;;;;;;1.70;1.52;;;24.10;63.00;;;;;;5028350;28;46403;-69
2022/08/14 02:14:17;;;;;;;2.47;1.60;;;24.20;63.10;;;;;;5034824;28;45307;-69
2022/08/14 02:16:47;;;;;;;1.65;1.40;;;24.20;63.10;;;;;;5057952;27;45426;-69
2022/08/14 02:19:18;;;;;;;1.83;1.55;;;24.20;63.00;;;;;;5037154;27;45335;-69
2022/08/14 02:21:47;;;;;;;1.60;1.40;;;24.20;62.90;;;;;;5099048;27;45527;-69
2022/08/14 02:24:15;;;;;;;2.38;1.30;;;24.20;63.00;;;;;;5053365;27;46005;-69
2022/08/14 02:26:46;;;;;;;1.65;1.40;;;24.20;63.10;;;;;;5061022;27;45412;-69
2022/08/14 02:29:16;;;;;;;1.58;1.20;;;24.20;63.20;;;;;;5029519;27;45311;-69
2022/08/14 02:31:48;;;;;;;1.58;1.48;;;24.20;63.10;;;;;;5057086;27;46452;-68
2022/08/14 02:34:17;;;;;;;2.10;1.90;;;24.20;63.10;;;;;;5037980;27;45347;-69
2022/08/14 02:36:46;;;;;;;1.77;1.67;;;24.20;63.00;;;;;;5031572;27;45498;-69
2022/08/14 02:39:14;;;;;;;1.90;1.50;;;24.20;63.00;;;;;;5045152;27;45566;-69
2022/08/14 02:41:42;;;;;;;1.65;1.45;;;24.20;62.90;;;;;;5063853;27;45541;-68
2022/08/14 02:44:11;;;;;;;1.85;1.40;;;24.20;62.80;;;;;;5073461;27;45457;-69
2022/08/14 02:46:43;;;;;;;1.70;1.60;;;24.20;62.80;;;;;;5069285;27;45358;-68
2022/08/14 02:49:12;;;;;;;1.63;1.50;;;24.20;62.80;;;;;;5027931;27;45441;-69
2022/08/14 02:51:40;;;;;;;2.00;1.60;;;24.20;62.70;;;;;;5041960;28;45280;-68
2022/08/14 02:54:08;;;;;;;3.00;1.58;;;24.20;62.70;;;;;;5035552;27;45717;-69
2022/08/14 02:56:37;;;;;;;1.80;1.52;;;24.20;62.70;;;;;;5052645;27;45322;-69
2022/08/14 02:59:05;;;;;;;1.92;1.70;;;24.20;62.60;;;;;;5043261;27;45352;-69
2022/08/14 03:01:33;;;;;;;2.08;1.60;;;24.20;62.60;;;;;;5024847;27;46444;-68
2022/08/14 03:04:00;;;;;;;2.00;1.80;;;24.20;62.60;;;;;;5035000;28;45431;-69
2022/08/14 03:06:28;;;;;;;1.77;1.67;;;24.20;62.70;;;;;;5027810;28;45291;-69
2022/08/14 03:08:56;;;;;;;1.80;1.70;;;24.20;62.70;;;;;;5070368;27;45440;-69
2022/08/14 03:11:23;;;;;;;1.98;1.60;;;24.10;62.60;;;;;;5027946;28;46077;-69
2022/08/14 03:13:51;;;;;;;3.17;1.48;;;24.10;62.70;;;;;;5034254;27;45482;-69
2022/08/14 03:16:20;;;;;;;2.63;1.80;;;24.20;62.80;;;;;;5031250;27;45568;-69
2022/08/14 03:18:51;;;;;;;2.67;1.77;;;24.10;62.80;;;;;;5034615;27;45600;-69
2022/08/14 03:21:20;;;;;;;1.92;1.70;;;24.20;63.00;;;;;;5030569;27;47210;-69
2022/08/14 03:23:55;;;;;;;2.40;1.80;;;24.20;62.90;;;;;;5031712;28;45427;-69
2022/08/14 03:26:24;;;;;;;2.05;1.83;;;24.20;64.10;;;;;;5037839;28;45298;-69
2022/08/14 03:28:52;;;;;;;2.22;1.70;;;24.20;63.00;;;;;;5072984;27;45593;-69
2022/08/14 03:31:22;;;;;;;2.00;1.80;;;24.10;62.80;;;;;;5049802;27;46613;-69
2022/08/14 03:33:50;;;;;;;2.20;1.92;;;24.20;63.10;;;;;;5041213;27;45421;-69
2022/08/14 03:36:21;;;;;;;2.20;2.00;;;24.20;63.00;;;;;;5033103;28;45461;-69
2022/08/14 03:38:52;;;;;;;2.22;1.95;;;24.20;63.00;;;;;;5037520;27;45394;-69
2022/08/14 03:41:21;;;;;;;2.17;1.90;;;24.10;62.90;;;;;;5046863;27;48339;-68
2022/08/14 03:43:54;;;;;;;1.92;1.73;;;24.20;63.10;;;;;;5037886;28;45385;-69
2022/08/14 03:46:22;;;;;;;2.88;1.98;;;24.10;62.90;;;;;;5073107;27;45331;-69
2022/08/14 03:48:49;;;;;;;2.20;1.95;;;24.10;63.00;;;;;;5072544;27;45431;-68
2022/08/14 03:51:16;;;;;;;2.58;2.38;;;24.10;63.10;;;;;;5024965;27;48334;-68
2022/08/14 03:53:46;;;;;;;4.65;2.33;;;24.10;63.10;;;;;;5028576;28;45316;-69
2022/08/14 03:56:16;;;;;;;2.05;1.85;;;24.20;63.30;;;;;;5032217;27;45417;-69
2022/08/14 03:58:45;;;;;;;2.13;1.90;;;24.20;63.20;;;;;;5059622;27;45480;-69
2022/08/14 04:01:13;;;;;;;2.42;2.00;;;24.10;63.10;;;;;;5052917;27;45485;-68
2022/08/14 04:03:40;;;;;;;3.78;2.20;;;24.10;63.10;;;;;;5067064;27;45312;-68
2022/08/14 04:06:09;;;;;;;2.30;1.90;;;24.10;63.20;;;;;;5060016;27;45474;-68
2022/08/14 04:08:37;;;;;;;2.05;1.85;;;24.10;63.20;;;;;;5030462;27;45397;-69
2022/08/14 04:11:05;;;;;;;2.78;2.22;;;24.10;63.20;;;;;;5037320;28;46608;-69
2022/08/14 04:13:36;;;;;;;2.60;2.40;;;24.10;63.20;;;;;;5072292;27;45599;-70
2022/08/14 04:16:04;;;;;;;2.83;2.50;;;24.10;63.30;;;;;;5044733;27;45444;-69
2022/08/14 04:18:31;;;;;;;2.47;2.28;;;24.20;63.30;;;;;;5031483;28;45317;-69
2022/08/14 04:20:59;;;;;;;2.53;2.22;;;24.10;63.30;;;;;;5037767;28;47569;-68
2022/08/14 04:23:26;;;;;;;2.40;2.20;;;24.10;63.30;;;;;;5052007;27;45434;-70
2022/08/14 04:25:53;;;;;;;2.28;2.08;;;24.10;63.30;;;;;;5050966;27;45315;-68
2022/08/14 04:28:23;;;;;;;3.05;2.35;;;24.10;63.30;;;;;;5073934;27;45320;-68
2022/08/14 04:30:51;;;;;;;3.05;2.25;;;24.10;63.40;;;;;;5029760;27;45429;-68
2022/08/14 04:33:18;;;;;;;2.88;2.50;;;24.10;63.40;;;;;;5049047;27;45603;-69
2022/08/14 04:35:45;;;;;;;2.53;2.33;;;24.10;63.30;;;;;;5059797;27;45385;-69
2022/08/14 04:43:42;;;;;;;2.55;2.22;;;24.20;63.50;;;;;;5086525;27;45316;-69
2022/08/14 04:46:13;;;;;;;2.63;2.30;;;24.10;63.30;;;;;;5039824;28;45445;-69
2022/08/14 04:48:39;;;;;;;3.08;2.78;;;24.10;63.40;;;;;;5038210;28;45593;-69
2022/08/14 04:51:08;;;;;;;2.05;1.88;;;24.20;63.60;;;;;;5037882;28;47366;-69
2022/08/14 04:53:37;;;;;;;2.60;2.40;;;24.10;63.40;;;;;;5039343;28;45376;-69
2022/08/14 04:56:05;;;;;;;2.38;2.17;;;24.20;63.50;;;;;;5038461;28;45437;-68
2022/08/14 04:58:34;;;;;;;5.43;2.50;;;24.10;63.40;;;;;;5036910;28;45353;-69
2022/08/14 05:01:05;;;;;;;2.50;2.25;;;24.10;63.40;;;;;;5031231;28;46317;-68
2022/08/14 05:03:35;;;;;;;2.97;2.67;;;24.10;63.40;;;;;;5074662;27;45404;-69
2022/08/14 05:06:06;;;;;;;3.08;2.50;;;24.20;63.60;;;;;;5068326;27;45271;-69
2022/08/14 05:08:33;;;;;;;3.35;2.38;;;24.10;63.50;;;;;;5027932;28;45436;-69
2022/08/14 05:11:03;;;;;;;2.35;2.15;;;24.20;63.60;;;;;;5074992;27;47503;-69
2022/08/14 05:13:31;;;;;;;2.47;2.28;;;24.10;63.50;;;;;;5047179;27;45413;-68
2022/08/14 05:15:59;;;;;;;2.22;2.03;;;24.10;63.50;;;;;;5049290;27;45582;-69
2022/08/14 05:18:30;;;;;;;2.65;2.45;;;24.10;63.60;;;;;;5028727;27;45345;-69
2022/08/14 05:21:01;;;;;;;2.70;2.50;;;24.10;63.60;;;;;;5064308;27;46862;-69
2022/08/14 05:23:31;;;;;;;2.83;2.50;;;24.10;63.60;;;;;;5032286;28;45335;-69
2022/08/14 05:26:00;;;;;;;2.90;2.60;;;24.10;63.70;;;;;;5032756;28;45315;-68
2022/08/14 05:28:29;;;;;;;2.55;2.35;;;24.20;63.80;;;;;;5067479;27;45364;-69
2022/08/14 05:30:59;;;;;;;3.33;2.40;;;24.10;63.80;;;;;;5027247;28;45514;-68
2022/08/14 05:33:28;;;;;;;2.83;2.28;;;24.10;63.80;;;;;;5071851;27;45342;-69
2022/08/14 05:36:00;;;;;;;2.97;2.65;;;24.10;63.90;;;;;;5038300;28;45418;-69
2022/08/14 05:38:32;;;;;;;2.92;2.35;;;24.10;64.00;;;;;;5031575;28;45199;-69
2022/08/14 05:41:00;;;;;;;2.95;2.50;;;24.10;64.00;;;;;;5074269;27;48232;-68
2022/08/14 05:43:27;;;;;;;3.42;2.78;;;24.20;64.20;;;;;;5070137;27;45302;-69
2022/08/14 05:45:54;;;;;;;2.50;2.30;;;24.10;64.10;;;;;;5029325;28;45631;-69
2022/08/14 05:48:21;;;;;;;2.92;2.63;;;24.10;64.20;;;;;;5071884;27;45306;-69
2022/08/14 05:50:48;;;;;;;3.00;2.53;;;24.10;64.20;;;;;;5062671;27;47707;-69
2022/08/14 05:53:15;;;;;;;4.78;2.70;;;24.10;64.30;;;;;;5048626;27;45367;-68
2022/08/14 05:55:44;;;;;;;3.05;2.58;;;24.10;64.40;;;;;;5041432;27;45403;-69
2022/08/14 05:58:11;;;;;;;3.88;2.83;;;24.10;64.40;;;;;;5069376;27;45414;-69
2022/08/14 06:00:41;;;;;;;2.80;2.60;;;24.10;64.40;;;;;;5030694;27;47682;-69
2022/08/14 06:03:13;;;;;;;2.72;2.47;;;24.10;64.50;;;;;;5037187;27;45536;-69
2022/08/14 06:05:41;;;;;;;2.90;2.40;;;24.10;64.60;;;;;;5038374;27;45467;-69
2022/08/14 06:08:16;;;;;;;2.88;2.50;;;24.10;64.60;;;;;;5037104;28;45511;-69
2022/08/14 06:10:46;;;;;;;2.90;2.60;;;24.10;64.60;;;;;;5037376;28;45511;-69
2022/08/14 06:13:14;;;;;;;3.20;2.90;;;24.10;64.70;;;;;;5036769;28;45549;-68
2022/08/14 06:15:41;;;;;;;4.05;2.60;;;24.10;64.70;;;;;;5037896;27;45361;-69
2022/08/14 06:18:09;;;;;;;2.63;2.42;;;24.10;64.80;;;;;;5040694;27;45388;-70
2022/08/14 06:20:37;;;;;;;2.97;2.67;;;24.10;64.80;;;;;;5038126;27;46499;-68
2022/08/14 06:23:05;;;;;;;2.90;2.60;;;24.10;65.00;;;;;;5037027;28;45400;-69
2022/08/14 06:25:32;;;;;;;3.92;3.10;;;24.10;64.90;;;;;;5036048;28;45437;-69
2022/08/14 06:28:01;;;;;;;3.65;2.90;;;24.10;65.10;;;;;;5040567;27;45652;-70
2022/08/14 06:30:32;;;;;;;4.03;2.90;;;24.10;65.10;;;;;;5036115;28;45573;-68
2022/08/14 06:32:59;;;;;;;3.67;3.00;;;24.10;65.20;;;;;;5038728;28;45397;-69
2022/08/14 06:35:26;;;;;;;4.03;3.00;;;24.10;65.20;;;;;;5037808;28;45393;-69
2022/08/14 06:37:55;;;;;;;3.75;3.35;;;24.10;65.40;;;;;;5039012;28;45302;-68
2022/08/14 06:40:24;;;;;;;4.30;3.03;;;24.10;65.40;;;;;;5034201;28;48082;-69
2022/08/14 06:42:52;;;;;;;3.65;3.30;;;24.10;65.60;;;;;;5038143;28;45411;-69
2022/08/14 06:45:21;;;;;;;4.25;3.50;;;24.10;65.60;;;;;;5037951;28;45356;-68
2022/08/14 06:47:48;;;;;;;3.90;3.50;;;24.10;65.70;;;;;;5036957;27;45282;-69
2022/08/14 06:50:17;;;;;;;3.80;3.38;;;24.10;65.70;;;;;;5035252;27;45456;-69
2022/08/14 06:52:44;;;;;;;4.43;3.55;;;24.10;65.80;;;;;;5036683;28;45396;-70
2022/08/14 06:55:16;;;;;;;4.20;3.55;;;24.10;65.90;;;;;;5036667;27;45349;-69
2022/08/14 06:57:45;;;;;;;3.83;3.42;;;24.10;65.90;;;;;;5039426;27;45519;-69
2022/08/14 07:00:16;;;;;;;3.75;3.40;;;24.10;66.00;;;;;;5032542;27;47573;-69
2022/08/14 07:05:48;;;;;;;4.07;3.58;;;24.10;66.00;;;;;;5036457;28;45473;-69
2022/08/14 07:08:17;;;;;;;4.15;3.65;;;24.10;66.10;;;;;;5034220;27;45567;-69
2022/08/14 07:10:46;;;;;;;4.88;3.60;;;24.20;66.30;;;;;;5037211;28;45459;-69
2022/08/14 07:13:14;;;;;;;4.25;3.85;;;24.10;66.10;;;;;;5035998;28;45400;-69
2022/08/14 07:15:44;;;;;;;4.00;3.60;;;24.10;66.20;;;;;;5036673;28;45392;-69
2022/08/14 07:18:13;;;;;;;4.38;3.95;;;24.20;66.40;;;;;;5038290;27;45729;-69
2022/08/14 07:20:41;;;;;;;4.78;3.85;;;24.10;66.30;;;;;;5035597;27;46567;-71
2022/08/14 07:23:10;;;;;;;4.43;3.92;;;24.20;66.40;;;;;;5037207;27;45381;-70
2022/08/14 07:25:38;;;;;;;4.10;3.53;;;24.20;66.40;;;;;;5036189;28;45459;-70
2022/08/14 07:28:10;;;;;;;8.35;3.90;;;24.20;66.60;;;;;;5038205;27;45435;-70
2022/08/14 07:30:38;;;;;;;4.40;3.80;;;24.20;67.70;;;;;;5034970;28;46601;-69
2022/08/14 07:33:05;;;;;;;4.32;3.92;;;24.20;66.80;;;;;;5037281;28;45425;-69
2022/08/14 07:35:34;;;;;;;3.92;3.30;;;24.20;66.80;;;;;;5034487;28;45390;-69
2022/08/14 07:38:01;;;;;;;5.13;4.10;;;24.20;66.90;;;;;;5037357;28;45452;-69
2022/08/14 07:40:28;;;;;;;4.25;3.60;;;24.20;67.00;;;;;;5036322;28;46590;-69
2022/08/14 07:42:55;;;;;;;3.85;3.53;;;24.20;67.00;;;;;;5036783;28;46447;-69
2022/08/14 07:45:22;;;;;;;4.50;3.92;;;24.20;67.10;;;;;;5038541;27;45368;-70
2022/08/14 07:47:48;;;;;;;4.22;3.83;;;24.20;67.20;;;;;;5036720;27;45564;-69
2022/08/14 07:50:17;;;;;;;4.38;3.65;;;24.20;67.20;;;;;;5036322;28;47510;-69
2022/08/14 07:52:47;;;;;;;4.72;3.80;;;24.20;67.30;;;;;;5037037;28;45762;-69
2022/08/14 07:55:16;;;;;;;4.97;3.53;;;24.20;67.80;;;;;;5027736;27;45445;-70
2022/08/14 07:57:45;;;;;;;4.47;3.92;;;24.20;68.70;;;;;;5018108;27;45766;-69
2022/08/14 08:00:15;;;;;;;5.32;4.07;;;24.20;67.80;;;;;;5017029;28;46614;-70
2022/08/14 08:02:43;;;;;;;4.40;3.90;;;24.20;67.80;;;;;;5035260;27;45368;-69
2022/08/14 08:05:11;;;;;;;4.22;3.83;;;24.20;67.80;;;;;;5034193;27;45384;-69
2022/08/14 08:07:39;;;;;;;3.35;3.05;;;24.20;67.80;;;;;;5037604;28;45490;-70
2022/08/14 08:12:57;;;;;;;3.90;3.47;;;24.20;67.60;;;;;;5035569;28;45452;-72
2022/08/14 08:15:25;;;;;;;4.13;3.42;;;24.20;67.70;;;;;;5036954;27;45593;-70
2022/08/14 08:17:52;;;;;;;4.57;3.47;;;24.20;67.70;;;;;;5039731;27;45449;-70
2022/08/14 08:20:20;;;;;;;3.83;3.45;;;24.30;67.70;;;;;;5038513;28;47626;-70
2022/08/14 08:22:47;;;;;;;4.32;3.67;;;24.30;67.70;;;;;;5035354;28;45198;-69
2022/08/14 08:25:15;;;;;;;4.18;3.55;;;24.30;67.70;;;;;;5039711;28;45430;-70
2022/08/14 08:27:42;;;;;;;4.03;3.33;;;24.30;68.70;;;;;;5038889;28;45725;-69
2022/08/14 08:30:10;;;;;;;4.15;3.28;;;24.20;67.60;;;;;;5039581;28;48594;-69
2022/08/14 08:32:41;;;;;;;4.18;3.55;;;24.30;67.70;;;;;;5040408;28;45370;-69
2022/08/14 08:35:17;;;;;;;3.80;3.38;;;24.20;67.60;;;;;;5040696;28;45292;-69
2022/08/14 08:37:43;;;;;;;4.15;3.63;;;24.30;67.80;;;;;;5040428;27;45614;-69
2022/08/14 08:40:11;;;;;;;4.45;3.50;;;24.20;67.70;;;;;;5039592;28;46425;-69
2022/08/14 08:42:41;;;;;;;4.22;3.30;;;24.20;67.50;;;;;;5040022;28;46045;-69
2022/08/14 08:45:09;;;;;;;4.28;3.40;;;24.30;67.70;;;;;;5040723;28;45446;-70
2022/08/14 08:47:40;;;;;;;3.80;3.30;;;24.30;67.70;;;;;;5040429;28;45542;-70
2022/08/14 08:50:20;;;;;;;3.60;3.30;;;24.30;67.70;;;;;;5039007;28;47714;-69
2022/08/14 08:52:49;;;;;;;3.50;3.20;;;24.20;67.70;;;;;;5037293;28;45425;-70
2022/08/14 08:55:16;;;;;;;3.97;3.20;;;24.20;67.70;;;;;;5038262;28;45510;-70
2022/08/14 08:57:44;;;;;;;5.07;3.38;;;24.20;67.70;;;;;;5040176;28;45538;-69
2022/08/14 09:00:17;;;;;;;4.75;3.83;;;24.20;67.70;;;;;;5039357;28;46310;-69
2022/08/14 09:02:55;;;;;;;4.47;3.20;;;24.20;67.70;;;;;;5039898;27;45319;-69
2022/08/14 09:05:22;;;;;;;6.57;3.25;;;24.20;67.60;;;;;;5040039;28;45488;-69
2022/08/14 09:07:49;;;;;;;3.45;3.13;;;24.20;67.50;;;;;;5040518;28;45713;-70
2022/08/14 09:10:16;;;;;;;3.67;3.30;;;24.20;67.50;;;;;;5039333;28;47555;-69
2022/08/14 09:12:44;;;;;;;3.78;3.47;;;24.20;67.60;;;;;;5039516;28;45390;-70
2022/08/14 09:15:12;;;;;;;3.63;2.90;;;24.20;67.60;;;;;;5039666;28;45400;-69
2022/08/14 09:17:38;;;;;;;3.80;2.92;;;24.20;67.70;;;;;;5040370;27;45471;-69
2022/08/14 09:20:06;;;;;;;5.07;3.40;;;24.20;67.50;;;;;;5039467;27;47450;-70
2022/08/14 09:22:34;;;;;;;3.55;3.25;;;24.20;67.50;;;;;;5039860;28;45505;-70
2022/08/14 09:25:00;;;;;;;3.28;2.92;;;24.20;67.50;;;;;;5039939;27;45433;-69
2022/08/14 09:27:27;;;;;;;3.33;2.88;;;24.20;67.50;;;;;;5038391;28;45539;-70
2022/08/14 09:29:55;;;;;;;4.25;3.38;;;24.30;67.70;;;;;;5039065;27;45417;-69
2022/08/14 09:32:32;;;;;;;3.40;3.10;;;24.20;67.60;;;;;;5039331;28;45564;-70
2022/08/14 09:35:08;;;;;;;3.75;3.05;;;24.20;67.60;;;;;;5040161;28;45427;-70
2022/08/14 09:37:44;;;;;;;3.47;2.90;;;24.20;67.50;;;;;;5039525;28;45448;-70
2022/08/14 09:40:20;;;;;;;3.10;2.80;;;24.20;67.50;;;;;;5038785;28;46511;-69
2022/08/14 09:42:57;;;;;;;4.25;2.95;;;24.30;67.50;;;;;;5039473;27;45269;-69
2022/08/14 09:45:34;;;;;;;3.67;2.90;;;24.20;67.50;;;;;;5036630;27;45237;-69
2022/08/14 09:48:01;;;;;;;3.42;3.00;;;24.30;67.60;;;;;;5034484;28;45253;-69
2022/08/14 09:50:31;;;;;;;3.42;3.10;;;24.30;67.50;;;;;;5038918;28;46573;-69
2022/08/14 09:53:02;;;;;;;3.42;2.88;;;24.30;67.50;;;;;;5040113;27;45528;-70
2022/08/14 09:55:34;;;;;;;2.92;2.63;;;24.30;67.50;;;;;;5039677;28;45351;-69
2022/08/14 09:58:10;;;;;;;3.20;2.70;;;24.30;67.50;;;;;;5039470;28;45358;-69
2022/08/14 10:00:43;;;;;;;3.20;2.90;;;24.30;67.50;;;;;;5038223;28;47510;-69
2022/08/14 10:03:10;;;;;;;3.22;2.78;;;24.30;67.50;;;;;;5036179;28;45240;-69
2022/08/14 10:05:38;;;;;;;3.88;2.92;;;24.30;67.50;;;;;;5038799;28;45632;-70
2022/08/14 10:08:15;;;;;;;4.03;2.92;;;24.30;67.40;;;;;;5039828;28;45458;-70
2022/08/14 10:10:42;;;;;;;3.95;2.83;;;24.30;67.30;;;;;;5037869;28;46107;-69
2022/08/14 10:13:22;;;;;;;3.70;2.90;;;24.30;67.30;;;;;;5039599;28;45542;-69
2022/08/14 10:15:51;;;;;;;3.78;3.00;;;24.30;67.30;;;;;;5039429;28;45288;-70
2022/08/14 10:18:20;;;;;;;3.38;2.72;;;24.30;67.30;;;;;;5037384;28;45566;-69
2022/08/14 10:20:56;;;;;;;3.15;2.90;;;24.30;67.40;;;;;;5037434;28;47310;-69
2022/08/14 10:23:25;;;;;;;2.67;2.42;;;24.20;67.20;;;;;;5038901;28;45466;-70
2022/08/14 10:25:57;;;;;;;3.42;2.92;;;24.20;67.10;;;;;;5037568;28;45577;-70
2022/08/14 10:28:26;;;;;;;3.08;2.78;;;24.30;67.10;;;;;;5037893;28;45422;-69
2022/08/14 10:30:54;;;;;;;3.45;2.75;;;24.20;66.90;;;;;;5038811;28;47178;-69
2022/08/14 10:33:25;;;;;;;2.97;2.70;;;24.30;66.90;;;;;;5039030;28;45389;-69
2022/08/14 10:35:52;;;;;;;3.65;2.90;;;24.30;67.00;;;;;;5039292;28;45500;-69
2022/08/14 10:38:31;;;;;;;2.65;2.40;;;24.30;67.00;;;;;;5038971;28;45265;-69
2022/08/14 10:41:12;;;;;;;3.35;2.63;;;24.30;67.00;;;;;;5037760;27;47698;-70
2022/08/14 10:43:40;;;;;;;2.78;2.45;;;24.30;66.80;;;;;;5038712;28;45514;-69
2022/08/14 10:46:16;;;;;;;2.55;2.33;;;24.30;66.80;;;;;;5038977;28;45535;-70
2022/08/14 10:48:54;;;;;;;3.08;2.78;;;24.30;66.60;;;;;;5038612;28;45610;-70
2022/08/14 10:51:25;;;;;;;2.60;2.40;;;24.30;66.60;;;;;;5038355;28;45458;-69
2022/08/14 10:53:54;;;;;;;2.80;2.30;;;24.30;67.30;;;;;;5038770;28;45408;-69
2022/08/14 10:56:32;;;;;;;2.58;2.30;;;24.30;66.30;;;;;;5038087;28;45533;-70
2022/08/14 10:59:01;;;;;;;2.55;2.30;;;24.30;66.30;;;;;;5038666;27;45289;-70
2022/08/14 11:01:32;;;;;;;2.60;2.40;;;24.30;66.10;;;;;;5038204;28;48339;-70
2022/08/14 11:03:59;;;;;;;3.17;2.40;;;24.30;66.00;;;;;;5038475;28;45910;-70
2022/08/14 11:06:26;;;;;;;2.83;2.50;;;24.30;66.00;;;;;;5038500;27;45368;-70
2022/08/14 11:08:53;;;;;;;2.78;2.30;;;24.30;66.00;;;;;;5038330;28;45340;-70
2022/08/14 11:11:21;;;;;;;2.50;2.30;;;24.30;65.90;;;;;;5037979;28;47256;-70
2022/08/14 11:13:49;;;;;;;3.95;2.38;;;24.30;65.90;;;;;;5037026;28;45346;-69
2022/08/14 11:16:17;;;;;;;2.33;2.13;;;24.30;65.90;;;;;;5038382;28;45492;-69
2022/08/14 11:18:47;;;;;;;3.03;2.58;;;24.30;65.80;;;;;;5037541;28;45431;-70
2022/08/14 11:21:17;;;;;;;2.47;2.25;;;24.30;65.80;;;;;;5038250;28;47073;-70
2022/08/14 11:23:46;;;;;;;2.75;2.45;;;24.30;65.80;;;;;;5037907;28;45371;-70
2022/08/14 11:26:14;;;;;;;2.80;2.40;;;24.30;65.80;;;;;;5038559;28;45397;-69
2022/08/14 11:28:43;;;;;;;2.28;2.00;;;24.30;65.70;;;;;;5036538;28;45470;-69
2022/08/14 11:31:13;;;;;;;2.75;2.38;;;24.30;65.80;;;;;;5037952;28;45281;-70
2022/08/14 11:33:41;;;;;;;2.60;2.40;;;24.30;65.80;;;;;;5038024;28;45317;-70
2022/08/14 11:36:12;;;;;;;2.40;2.05;;;24.30;65.70;;;;;;5038508;28;45580;-69
2022/08/14 11:38:42;;;;;;;2.58;2.20;;;24.30;65.70;;;;;;5040559;27;45322;-71
2022/08/14 11:41:10;;;;;;;2.53;2.20;;;24.30;65.70;;;;;;5040867;28;48303;-69
2022/08/14 11:43:40;;;;;;;2.58;2.38;;;24.30;65.60;;;;;;5040558;28;45266;-69
2022/08/14 11:46:07;;;;;;;2.97;2.30;;;24.30;65.50;;;;;;5041160;27;45418;-70
2022/08/14 11:48:46;;;;;;;2.30;2.10;;;24.30;65.50;;;;;;5041123;28;45480;-69
2022/08/14 11:51:19;;;;;;;2.60;2.40;;;24.30;65.50;;;;;;5040659;28;46401;-69
2022/08/14 11:53:52;;;;;;;2.38;2.05;;;24.30;65.50;;;;;;5041110;28;45414;-70
2022/08/14 11:56:19;;;;;;;2.70;2.20;;;24.30;65.50;;;;;;5040513;28;45370;-69
2022/08/14 11:58:51;;;;;;;2.50;2.30;;;24.30;65.40;;;;;;5040545;28;45708;-69
2022/08/14 12:01:27;;;;;;;2.20;2.00;;;24.30;65.40;;;;;;5040238;28;48739;-69
2022/08/14 12:03:55;;;;;;;2.40;2.20;;;24.30;65.40;;;;;;5040750;28;45769;-69
2022/08/14 12:06:27;;;;;;;2.20;2.00;;;24.30;65.40;;;;;;5040725;28;45434;-70
2022/08/14 12:08:56;;;;;;;2.55;1.98;;;24.30;65.40;;;;;;5039852;28;45424;-70
2022/08/14 12:11:23;;;;;;;2.25;2.05;;;24.30;65.40;;;;;;5040834;28;45519;-69
2022/08/14 12:13:50;;;;;;;2.33;2.13;;;24.40;65.50;;;;;;5040678;28;45379;-69
2022/08/14 12:16:19;;;;;;;2.67;2.10;;;24.30;65.40;;;;;;5039002;28;45324;-70
2022/08/14 12:18:49;;;;;;;2.78;2.00;;;24.30;65.40;;;;;;5040055;28;45340;-69
2022/08/14 12:21:18;;;;;;;2.50;2.30;;;24.30;65.40;;;;;;5040322;28;47055;-69
2022/08/14 12:23:47;;;;;;;2.13;1.92;;;24.40;65.60;;;;;;5040086;28;45507;-69
2022/08/14 12:26:19;;;;;;;2.53;2.20;;;24.30;65.40;;;;;;5040617;28;45366;-69
2022/08/14 12:28:48;;;;;;;2.20;2.00;;;24.30;65.20;;;;;;5037207;28;45691;-69
2022/08/14 12:31:18;;;;;;;2.30;2.10;;;24.30;65.20;;;;;;5040243;27;47519;-69
2022/08/14 12:33:56;;;;;;;2.47;2.28;;;24.30;65.20;;;;;;5040105;27;45460;-69
2022/08/14 12:36:23;;;;;;;2.35;1.60;;;24.30;65.10;;;;;;5039154;28;45295;-70
2022/08/14 12:38:51;;;;;;;2.55;2.25;;;24.30;65.20;;;;;;5040589;27;45548;-70
2022/08/14 12:41:20;;;;;;;2.50;2.30;;;24.30;65.20;;;;;;5038983;28;47946;-70
2022/08/14 12:43:50;;;;;;;2.40;2.20;;;24.30;65.10;;;;;;5040374;28;45668;-70
2022/08/14 12:46:25;;;;;;;2.28;2.08;;;24.30;65.20;;;;;;5037955;28;45394;-69
2022/08/14 12:48:52;;;;;;;2.10;1.90;;;24.30;65.20;;;;;;5038858;28;45236;-70
2022/08/14 12:51:20;;;;;;;2.22;2.03;;;24.30;65.20;;;;;;5039908;27;47072;-69
2022/08/14 12:53:47;;;;;;;2.22;2.03;;;24.30;65.20;;;;;;5040720;27;45460;-70
2022/08/14 12:56:19;;;;;;;1.95;1.77;;;24.30;65.30;;;;;;5040332;28;45389;-70
2022/08/14 12:58:49;;;;;;;2.17;1.92;;;24.30;65.40;;;;;;5039995;28;45486;-69
2022/08/14 13:01:21;;;;;;;2.17;1.98;;;24.30;65.30;;;;;;5038113;28;47484;-69
2022/08/14 13:03:48;;;;;;;2.17;1.98;;;24.30;65.30;;;;;;5038531;28;45463;-70
2022/08/14 13:06:16;;;;;;;2.20;1.90;;;24.40;65.40;;;;;;5040125;28;45493;-70
2022/08/14 13:08:43;;;;;;;2.30;2.10;;;24.30;65.20;;;;;;5039709;28;45308;-69
2022/08/14 13:11:12;;;;;;;2.20;2.00;;;24.30;65.20;;;;;;5039659;28;47328;-69